Main page
METAR-TAF:

METAR-TAF

Airports :

Cranfield, England

Cranfield Airport

latitude: 52-04N, longitude: 000-37W, elevation: 111 m

Current weather observation

The report was made 2 hours and 22 minutes ago, at 17:50 UTC
Wind 5 kt from the West
Temperature 2°C
Humidity 93%
Pressure 1031 hPa
Visibility: 7000 m

METAR: EGTC 181750Z 28005KT 7000 NSC 02/01 Q1031

Time: 20:12 (20:12 UTC)

Forecast

The report was made 2 hours and 10 minutes ago, at 18:02 UTC
Forecast valid from 18 at 18 UTC to 18 at 19 UTC
Wind 3 kt from the West/Northwest
Visibility: 7000 m
Probability 30%
from 18 at 18 UTC to 18 at 19 UTC
Visibility: 4000 m
mist

TAF: EGTC 181802Z 1818/1819 29003KT 7000 NSC PROB30 1818/1819 4000 BR

Weather observations and forecasts of more than 4000 airports (METAR and TAF reports).

The available stations are represented by yellow and red dots on the map.

Hover mouse over dot to see the name of the station.

Then click to see weather observations and forecasts.

To change the map : click on the green buttons with a black cross to zoom in, on the green button with a dash to zoom out, or on the green arrows for adjacent maps.


METAR-TAF: